Hoppa till innehåll

METAR väder och rapporter - KJFK

Nedan listas information från vald flygplats. Andra METARs finns längre ned på sidan. Kontakta oss om någon saknas eller skriv in egen ICAO-kod.

Coded METAR: 2019/01/23 04:51 KJFK 230451Z 22010KT 10SM SCT210 OVC260 M02/M08 A3057 RMK AO2 SLP352 T10171083 410061100

Weather Report @ KJFK

Issued: 23rd Jan 2019 at 05:51 CET

Wind: gentle breeze from the Southwest (220 degrees) at 10 knots (12 mph, 19 kph, 5 mps, Force 3)
Visibility: 10 statute miles
Cloud: scattered at 21000 feet
Cloud: overcast at 26000 feet
Temperature: 28F / -2C
Dewpoint: 18F / -8C
Humidity: 63%
Pressure: 30.57 inches of mercury

Coded TAF: 2019/01/23 02:26 TAF AMD KJFK 230218Z 2302/2406 21003KT P6SM BKN250 FM230700 20007KT P6SM SCT100 BKN250 FM231300 20010KT P6SM SCT040 OVC100 FM231600 21014G19KT P6SM SCT025 BKN050 FM232100 19012KT P6SM VCSH BKN025 OVC040 WS020/21045KT FM240000 19014KT P6SM VCSH SCT015 BKN025 WS020/21050KT FM240300 19015KT 5SM -RA BR SCT007 BKN015 WS020/21050KT

Weather Forecast @ KJFK

Issued: 23rd Jan 2019 at 03:26 CET

Valid : 1st Jan 01:00 until 01:00 CET

01:00 CET
DATA TOO OLD TO BE USEFUL !

Internet delivery of weather data is not secure or reliable enough for operational purposes.

NEVER RELY ON THE OUTPUT OF THIS SCRIPT TO MAKE DECISIONS ABOUT ANYTHING IN WHICH THE WEATHER FORECAST AND ITS INTERPRETATION COULD BE AN ISSUE OF SAFETY.

Andra intressanta METARs

Klicka på önskad rubrik nedan för att visa nuvarande väder för den platsen.

Avstånd från stationen: NO 27kmESGG - Göteborg (Landvetter)
Uppdaterad: 2019-01-23 05:50
 Vind från SO
Vind: SO 13 km/h
Temperatur: -4°C
Vindavkylning: -9°C
Daggpunkt: -5°C
Luftfuktighet: 93%
Barometer: 1005 hPa
Summering: Klart
Sikt: mer än 10 km
2019/01/23 04:50 ESGG 230450Z 13007KT CAVOK M04/M05 Q1005 R21/29//95
Klart
Klart
  Visa detaljer för Göteborg (Landvetter)
Avstånd från stationen: N 28kmESGP - Göteborg (Säve)
Uppdaterad: 2017-01-02 11:20
Ej aktuell
 Vind från calm
Vind: Vindstilla
Temperatur: -2°C
Daggpunkt: -4°C
Luftfuktighet: 86%
Barometer: 1012 hPa
Moln: Klart
Sikt: 10 km
2017/01/02 10:20 ESGP 021020Z AUTO 00000KT 9999 NCD M02/M04 Q1012
Klart
Klart
  Visa detaljer för Göteborg (Säve)
Avstånd från stationen: NO 419kmESSA - Stockholm (Arlanda)
Uppdaterad: 2019-01-23 05:50
 Vind från VNV
Vind: VNV 4 km/h
Temperatur: -2°C
Daggpunkt: -3°C
Luftfuktighet: 93%
Barometer: 1007 hPa
Summering: Light snow, Dimmigt
Moln: Genommulet
Sikt: 3 km
Molninformation: Genommulet 61 m
2019/01/23 04:50 ESSA 230450Z 30002KT 2600 -SN BR OVC002 M02/M03 Q1007 R01L/71//63 R08/71//67 R01R/71//75 TEMPO 5000 BR
Light snow, Dimmigt, Genommulet
Light snow
Dimmigt
Genommulet
  Visa detaljer för Stockholm (Arlanda)
Avstånd från stationen: ONO 404kmESSB - Stockholm (Bromma)
Uppdaterad: 2019-01-23 05:50
 Vind från calm
Vind: Vindstilla
Temperatur: -1°C
Daggpunkt: -2°C
Luftfuktighet: 93%
Barometer: 1007 hPa
Summering: Dimmigt
Moln: Genommulet
Sikt: 4 km
Molninformation: Genommulet 61 m
2019/01/23 04:50 ESSB 230450Z AUTO 00000KT 3800 BR OVC002/// M01/M02 Q1007
Dimmigt, Genommulet
Dimmigt
Genommulet
  Visa detaljer för Stockholm (Bromma)
Avstånd från stationen: ONO 323kmESKN - Stockholm (Skavsta)
Uppdaterad: 2019-01-23 05:50
 Vind från calm
Vind: Vindstilla
Temperatur: -2°C
Daggpunkt: -2°C
Luftfuktighet: 100%
Barometer: 1007 hPa
Summering: Dimmigt
Moln: Övervägande molnigt
Sikt: 4 km
Molninformation: Övervägande molnigt 427 m
2019/01/23 04:50 ESKN 230450Z 00000KT 3700 BR BKN014 M02/M02 Q1007 R26/490295
Dimmigt, Övervägande molnigt
Dimmigt
Övervägande molnigt
  Visa detaljer för Stockholm (Skavsta)
Avstånd från stationen: SSO 238kmESMS - Malmö flygplats (Sturup)
Uppdaterad: 2019-01-23 05:50
 Vind från SO
Vind: SO 17 km/h
Temperatur: -2°C
Vindavkylning: -7°C
Daggpunkt: -4°C
Luftfuktighet: 86%
Barometer: 1006 hPa
Moln: Några få moln
Sikt: 8 km
Molninformation: Några få moln 457 m
2019/01/23 04:50 ESMS 230450Z 14009KT 8000 FEW015 M02/M04 Q1006 R17/19//95
Några få moln
Några få moln
  Visa detaljer för Malmö flygplats (Sturup)
Avstånd från stationen: O 382kmESSV - Visby flygplats
Uppdaterad: 2019-01-23 05:50
 Vind från S
Vind: S 11 km/h
Temperatur: 0°C
Vindavkylning: -4°C
Daggpunkt: -1°C
Luftfuktighet: 93%
Barometer: 1008 hPa
Moln: Delvis molnigt
Sikt: 10 km
Molninformation: Några få moln 549 m
Delvis molnigt 762 m
2019/01/23 04:50 ESSV 230450Z 19006KT 160V220 9999 FEW018 SCT025 M00/M01 Q1008
Delvis molnigt
Delvis molnigt
  Visa detaljer för Visby flygplats
Avstånd från stationen: NNO 92kmESGT - Trollhättan
Uppdaterad: 2019-01-22 23:20
Ej aktuell
 Vind från SSO
Vind: SSO 6 km/h
Temperatur: -4°C
Daggpunkt: -5°C
Luftfuktighet: 93%
Barometer: 1007 hPa
Moln: Genommulet
Sikt: 10 km
Molninformation: Genommulet 1433 m
2019/01/22 22:20 ESGT 222220Z AUTO 16003KT 9999 OVC047/// M04/M05 Q1007
Genommulet
Genommulet
  Visa detaljer för Trollhättan
Avstånd från stationen: ONO 129kmESGJ - Jönköpings flygplats
Uppdaterad: 2019-01-23 05:50
 Vind från SO
Vind: SO 4 km/h
Temperatur: -4°C
Daggpunkt: -5°C
Luftfuktighet: 93%
Barometer: 1006 hPa
Moln: Klart
Sikt: 10 km
2019/01/23 04:50 ESGJ 230450Z AUTO 13002KT 9999 NCD M04/M05 Q1006
Klart
Klart
  Visa detaljer för Jönköpings flygplats
Avstånd från stationen: NNO 229kmESOK - Karlstad
Uppdaterad: 2019-01-23 05:50
 Vind från ONO
Vind: ONO 7 km/h
Temperatur: -4°C
Vindavkylning: -7°C
Daggpunkt: -4°C
Luftfuktighet: 100%
Barometer: 1006 hPa
Moln: Genommulet
Sikt: 9 km
Molninformation: Övervägande molnigt 91 m
Genommulet 1311 m
2019/01/23 04:50 ESOK 230450Z 07004KT 9000 BKN003 OVC043 M04/M04 Q1006
Genommulet
Genommulet
  Visa detaljer för Karlstad
Avstånd från stationen: N 643kmESNZ - Östersund (Frösön)
Uppdaterad: 2019-01-23 05:50
 Vind från calm
Vind: Vindstilla
Temperatur: -13°C
Daggpunkt: -15°C
Luftfuktighet: 85%
Barometer: 1001 hPa
Summering: Light Snow
Moln: Genommulet
Sikt: 10 km
Molninformation: Genommulet 91 m
2019/01/23 04:50 ESNZ 230450Z 00000KT 9999 -SN OVC003 M13/M15 Q1001
Light snow, Genommulet
Light snow
Genommulet
  Visa detaljer för Östersund (Frösön)
Avstånd från stationen: SSO 216kmEKCH - Köpenhamn (Kastrup)
Uppdaterad: 2019-01-23 05:50
 Vind från SSO
Vind: SSO 30 km/h
Temperatur: 0°C
Vindavkylning: -6°C
Daggpunkt: -4°C
Luftfuktighet: 75%
Barometer: 1006 hPa
Moln: Övervägande molnigt
Sikt: 9 km
Molninformation: Övervägande molnigt 549 m
2019/01/23 04:50 EKCH 230450Z 15016KT 9000 BKN018 M00/M04 Q1006 R04L/310178 R04R/310181 R12/310186 NOSIG
Övervägande molnigt
Övervägande molnigt
  Visa detaljer för Köpenhamn (Kastrup)
Avstånd från stationen: SV 263kmEKBI - Billund Airport
Uppdaterad: 2019-01-23 05:50
 Vind från SO
Vind: SO 11 km/h
Temperatur: -3°C
Vindavkylning: -7°C
Daggpunkt: -5°C
Luftfuktighet: 86%
Barometer: 1001 hPa
Moln: Genommulet
Sikt: 8 km
Molninformation: Genommulet 457 m
2019/01/23 04:50 EKBI 230450Z AUTO 13006KT 8000 OVC015/// M03/M05 Q1001
Genommulet
Genommulet
  Visa detaljer för Billund Airport
Avstånd från stationen: N 302kmENGM - Oslo (Gardermoen)
Uppdaterad: 2019-01-23 05:50
 Vind från calm
Vind: Vindstilla
Temperatur: -5°C
Daggpunkt: -6°C
Luftfuktighet: 93%
Barometer: 1005 hPa
Moln: Genommulet
Sikt: 9 km
Molninformation: Genommulet 183 m
2019/01/23 04:50 ENGM 230450Z 00000KT 9000 OVC006 M05/M06 Q1005 NOSIG
Genommulet
Genommulet
  Visa detaljer för Oslo (Gardermoen)
Avstånd från stationen: NO 540kmEFMA - Mariehamn / Åland
Uppdaterad: 2019-01-23 05:50
 Vind från varierande
Vind: varierande 2 km/h
Temperatur: -3°C
Daggpunkt: -4°C
Luftfuktighet: 93%
Barometer: 1007 hPa
Summering: Klart
Sikt: mer än 10 km
2019/01/23 04:50 EFMA 230450Z AUTO VRB01KT CAVOK M03/M04 Q1007
Klart
Klart
  Visa detaljer för Mariehamn / Åland
Avstånd från stationen: S 558kmEDDT - Berlin (Tegel), Germany
Uppdaterad: 2019-01-23 05:50
 Vind från OSO
Vind: OSO 17 km/h
Temperatur: -6°C
Vindavkylning: -12°C
Daggpunkt: -8°C
Luftfuktighet: 86%
Barometer: 1005 hPa
Moln: Övervägande molnigt
Sikt: 6 km
Molninformation: Övervägande molnigt 213 m
2019/01/23 04:50 EDDT 230450Z 12009KT 070V140 6000 BKN007 M06/M08 Q1005 TEMPO 3500 BR
Övervägande molnigt
Övervägande molnigt
  Visa detaljer för Berlin (Tegel), Germany
Avstånd från stationen: SV 737kmEHAM - Amsterdam (Schiphol)
Uppdaterad: 2019-01-23 05:55
 Vind från O
Vind: O 7 km/h
Temperatur: -1°C
Vindavkylning: -4°C
Daggpunkt: -2°C
Luftfuktighet: 93%
Barometer: 997 hPa
Moln: Övervägande molnigt
Sikt: 8 km
Molninformation: Några få moln 183 m
Övervägande molnigt 244 m
2019/01/23 04:55 EHAM 230455Z 10004KT 070V130 8000 FEW006 BKN008 M01/M02 Q0997 BECMG FEW008 BKN010
Övervägande molnigt
Övervägande molnigt
  Visa detaljer för Amsterdam (Schiphol)
Avstånd från stationen: ONO 808kmEFHK - Helsingfors (Vantaa)
Uppdaterad: 2019-01-23 05:50
 Vind från S
Vind: S 17 km/h
Temperatur: -3°C
Vindavkylning: -8°C
Daggpunkt: -4°C
Luftfuktighet: 93%
Barometer: 1008 hPa
Summering: Light Snow
Moln: Övervägande molnigt
Sikt: 3 km
Molninformation: Övervägande molnigt 213 m
2019/01/23 04:50 EFHK 230450Z 18009KT 2500 -SN BKN007 M03/M04 Q1008 NOSIG
Light snow, Övervägande molnigt
Light snow
Övervägande molnigt
  Visa detaljer för Helsingfors (Vantaa)
Avstånd från stationen: SSV 537kmEDDW - Bremen
Uppdaterad: 2019-01-23 05:50
 Vind från OSO
Vind: OSO 11 km/h
Temperatur: -6°C
Vindavkylning: -11°C
Daggpunkt: -8°C
Luftfuktighet: 86%
Barometer: 1001 hPa
Moln: Några få moln
Sikt: 9 km
Molninformation: Några få moln 853 m
2019/01/23 04:50 EDDW 230450Z 11006KT 9000 FEW028 M06/M08 Q1001 NOSIG
Några få moln
Några få moln
  Visa detaljer för Bremen
Avstånd från stationen: SSV 861kmEDDF - Frankfurt am Main
Uppdaterad: 2019-01-23 05:50
 Vind från O
Vind: O 15 km/h
Temperatur: -2°C
Vindavkylning: -7°C
Daggpunkt: -6°C
Luftfuktighet: 74%
Barometer: 999 hPa
Moln: Genommulet
Sikt: 10 km
Molninformation: Genommulet 732 m
2019/01/23 04:50 EDDF 230450Z 08008KT 9999 OVC024 M02/M06 Q0999 NOSIG
Genommulet
Genommulet
  Visa detaljer för Frankfurt am Main
Avstånd från stationen: SV 880kmEBBR - Bryssel international
Uppdaterad: 2019-01-23 05:50
 Vind från OSO
Vind: OSO 11 km/h
Temperatur: -1°C
Vindavkylning: -5°C
Daggpunkt: -3°C
Luftfuktighet: 86%
Barometer: 995 hPa
Moln: Övervägande molnigt
Sikt: 8 km
Molninformation: Några få moln 183 m
Övervägande molnigt 732 m
2019/01/23 04:50 EBBR 230450Z 12006KT 8000 FEW006 BKN024 M01/M03 Q0995 TEMPO 3000 -SN BKN006
Övervägande molnigt
Övervägande molnigt
  Visa detaljer för Bryssel international
Avstånd från stationen: SV 738kmEHAM - Amsterdam (Schiphol)
Uppdaterad: 2019-01-23 05:55
 Vind från O
Vind: O 7 km/h
Temperatur: -1°C
Vindavkylning: -4°C
Daggpunkt: -2°C
Luftfuktighet: 93%
Barometer: 997 hPa
Moln: Övervägande molnigt
Sikt: 8 km
Molninformation: Några få moln 183 m
Övervägande molnigt 244 m
2019/01/23 04:55 EHAM 230455Z 10004KT 070V130 8000 FEW006 BKN008 M01/M02 Q0997 BECMG FEW008 BKN010
Övervägande molnigt
Övervägande molnigt
  Visa detaljer för Amsterdam (Schiphol)
Avstånd från stationen: SV 1044kmEGLL - London (Heathrow)
Uppdaterad: 2019-01-23 05:50
 Vind från NV
Vind: NV 7 km/h
Temperatur: 1°C
Vindavkylning: -2°C
Daggpunkt: 0°C
Luftfuktighet: 93%
Barometer: 998 hPa
Moln: Övervägande molnigt
Sikt: 7 km
Molninformation: Övervägande molnigt 244 m
2019/01/23 04:50 EGLL 230450Z AUTO 31004KT 270V350 7000 BKN008 01/00 Q0998 NOSIG
Övervägande molnigt
Övervägande molnigt
  Visa detaljer för London (Heathrow)
Avstånd från stationen: SV 1132kmLFPG - Paris (Charles de Gaulle)
Uppdaterad: 2019-01-23 06:00
 Vind från V
Vind: V 13 km/h
Temperatur: 1°C
Vindavkylning: -3°C
Daggpunkt: 0°C
Luftfuktighet: 93%
Barometer: 994 hPa
Moln: Övervägande molnigt
Sikt: 10 km
Molninformation: Övervägande molnigt 152 m
Övervägande molnigt 1372 m
2019/01/23 05:00 LFPG 230500Z 27007KT 9999 BKN005 BKN045 01/00 Q0994 R26/59//50 NOSIG
Övervägande molnigt
Övervägande molnigt
  Visa detaljer för Paris (Charles de Gaulle)
Avstånd från stationen: SSV 1142kmLSZH - Zürich Airport
Uppdaterad: 2019-01-23 05:50
 Vind från varierande
Vind: varierande 4 km/h
Temperatur: -3°C
Daggpunkt: -5°C
Luftfuktighet: 86%
Barometer: 997 hPa
Moln: Övervägande molnigt
Sikt: 8 km
Molninformation: Delvis molnigt 335 m
Övervägande molnigt 396 m
2019/01/23 04:50 LSZH 230450Z VRB02KT 8000 SCT011 BKN013 M03/M05 Q0997 NOSIG
Övervägande molnigt
Övervägande molnigt
  Visa detaljer för Zürich Airport
Avstånd från stationen: S 1749kmLIRF - Rome Airport (Fiumicino - Leonardo da Vinci)
Uppdaterad: 2019-01-23 05:50
 Vind från SO
Vind: SO 13 km/h
Temperatur: 5°C
Vindavkylning: 2°C
Daggpunkt: 3°C
Luftfuktighet: 87%
Barometer: 1000 hPa
Moln: Delvis molnigt
Sikt: 10 km
Molninformation: Delvis molnigt 1524 m
2019/01/23 04:50 LIRF 230450Z 13007KT 9999 SCT050 05/03 Q1000 NOSIG
Delvis molnigt
Delvis molnigt
  Visa detaljer för Rome Airport (Fiumicino - Leonardo da Vinci)
Avstånd från stationen: SO 2679kmLTAI - Antalya
Uppdaterad: 2019-01-23 05:50
 Vind från N
Vind: N 9 km/h
Temperatur: 8°C
Vindavkylning: 6°C
Daggpunkt: 8°C
Luftfuktighet: 100%
Barometer: 1016 hPa
Moln: Övervägande molnigt
Sikt: 10 km
Molninformation: Övervägande molnigt 914 m
2019/01/23 04:50 LTAI 230450Z 35005KT 9999 BKN030 08/08 Q1016 NOSIG
Övervägande molnigt
Övervägande molnigt
  Visa detaljer för Antalya
Avstånd från stationen: VSV 6074kmKJFK - New Your (JFK)
Uppdaterad: 2019-01-23 05:51
 Vind från SV
Vind: SV 19 km/h
Temperatur: -2°C
Vindavkylning: -8°C
Daggpunkt: -8°C
Luftfuktighet: 64%
Barometer: 1035.2 hPa
Moln: Genommulet
Sikt: 16 km
Molninformation: Delvis molnigt 6401 m
Genommulet 7925 m
2019/01/23 04:51 KJFK 230451Z 22010KT 10SM SCT210 OVC260 M02/M08 A3057 RMK AO2 SLP352 T10171083 410061100
Genommulet
Genommulet
  Visa detaljer för New Your (JFK)
Avstånd från stationen: VSV 8848kmKLAX - Los Angeles International Airport
Uppdaterad: 2019-01-23 05:53
 Vind från N
Vind: N 13 km/h
Temperatur: 15°C
Daggpunkt: -11°C
Luftfuktighet: 16%
Barometer: 1026.1 hPa
Moln: Några få moln
Sikt: 16 km
Molninformation: Några få moln 7620 m
2019/01/23 04:53 KLAX 230453Z 35007KT 10SM FEW250 15/M11 A3030 RMK AO2 SLP261 T01501106
Några få moln
Några få moln
  Visa detaljer för Los Angeles International Airport
Avstånd från stationen: SO 4968kmOMDB - Dubai International Airport
Uppdaterad: 2019-01-23 06:00
 Vind från S
Vind: S 9 km/h
Temperatur: 17°C
Daggpunkt: 12°C
Luftfuktighet: 73%
Barometer: 1018 hPa
Summering: Klart
Sikt: mer än 10 km
2019/01/23 05:00 OMDB 230500Z 18005KT 140V220 CAVOK 17/12 Q1018 NOSIG
Klart
Klart
  Visa detaljer för Dubai International Airport
Avstånd från stationen: OSO 8570kmRJTT - Tokyo International Airport
Uppdaterad: 2019-01-23 06:00
 Vind från S
Vind: S 30 km/h
Temperatur: 11°C
Daggpunkt: 1°C
Luftfuktighet: 50%
Barometer: 1010 hPa
Moln: Några få moln
Sikt: 10 km
Molninformation: Några få moln 914 m
2019/01/23 05:00 RJTT 230500Z 18016KT 9999 FEW030 11/01 Q1010 NOSIG RMK 1CU030 A2984
Några få moln
Några få moln
  Visa detaljer för Tokyo International Airport
Avstånd från stationen: OSO 7125kmZBAA - Peking (Beijing Capital)
Uppdaterad: 2019-01-23 06:00
 Vind från N
Vind: N 7 km/h
Temperatur: 11°C
Daggpunkt: -18°C
Luftfuktighet: 11%
Barometer: 1024 hPa
Summering: Klart
Sikt: mer än 10 km
2019/01/23 05:00 ZBAA 230500Z 01002MPS 310V060 CAVOK 11/M18 Q1024 NOSIG
Klart
Klart
  Visa detaljer för Peking (Beijing Capital)
VÄDER KURIOSA -  AstronomyNeptune was discovered in 1846 (over 150 years ago). Since that time it has still yet to make a complete orbit around the sun, because one Neptune year lasts 165 Earth years!